This is the latest recevied weather packets stored in our database for station/object Kirchdorf. If no packets are shown the sender has not sent any weather packets the latest 10 day(s).
| Time | Temp. | Humidity | Pressure | Rain* | Wind** | Luminosity | Snow |
|---|---|---|---|---|---|---|---|
| 1787653930 | 15.56° C | 93% | 1013.8 hPa | 3.05 mm | - | - | - |
| 1787652130 | 15° C | 93% | 1013.6 hPa | 3.05 mm | - | - | - |
| 1787650329 | 14.44° C | 94% | 1013.6 hPa | 2.79 mm | - | - | - |
| 1787648530 | 13.89° C | 94% | 1013.5 hPa | 2.54 mm | - | - | - |
| 1787646730 | 13.33° C | 93% | 1013.2 hPa | 2.03 mm | - | - | - |
| 1787644929 | 13.33° C | 91% | 1012.9 hPa | 1.27 mm | - | - | - |
| 1787643130 | 13.33° C | 88% | 1012.7 hPa | 0.25 mm | - | - | - |
| 1787641330 | 14.44° C | 83% | 1012.1 hPa | 0 mm | - | - | - |
| 1787639529 | 14.44° C | 81% | 1011.5 hPa | 0 mm | - | - | - |
| 1787637730 | 13.89° C | 85% | 1011.2 hPa | 0 mm | - | - | - |
| 1787635930 | 13.33° C | 85% | 1010.8 hPa | 0 mm | - | - | - |
| 1787634129 | 13.33° C | 87% | 1010.6 hPa | 0 mm | - | - | - |
| 1787632329 | 13.33° C | 86% | 1010.3 hPa | 0 mm | - | - | - |
| 1787630529 | 13.33° C | 84% | 1010 hPa | 0 mm | - | - | - |
| 1787628730 | 13.33° C | 83% | 1009.5 hPa | 0 mm | - | - | - |
| 1787626930 | 13.33° C | 82% | 1009.6 hPa | 0 mm | - | - | - |
| 1787625129 | 13.33° C | 82% | 1009.8 hPa | 0 mm | - | - | - |
| 1787623329 | 13.89° C | 81% | 1010.2 hPa | 0 mm | - | - | - |
| 1787621529 | 13.33° C | 81% | 1010.4 hPa | 0 mm | - | - | - |
| 1787619730 | 13.89° C | 79% | 1010.8 hPa | 0 mm | - | - | - |
| 1787617931 | 14.44° C | 76% | 1010.6 hPa | 0 mm | - | - | - |
| 1787616131 | 14.44° C | 75% | 1010.5 hPa | 0 mm | - | - | - |
| 1787614331 | 15.56° C | 71% | 1011.1 hPa | 0 mm | - | - | - |
| 1787612532 | 15.56° C | 69% | 1012 hPa | 0 mm | - | - | - |
| 1787610731 | 16.11° C | 68% | 1012.4 hPa | 0 mm | - | - | - |
* Rain since midnight (hover to see other rain measurements)
** Current wind speed in m/s (hover to see current wind gust speed)